Time;durP1;ratioP1;P1;durP2;ratioP2;P2;SDS_P1;SDS_P2;PMS_P1;PMS_P2;Temp;Humidity;BMP_temperature;BMP_pressure;BME280_temperature;BME280_humidity;BME280_pressure;Samples;Min_cycle;Max_cycle;Signal;HPM_P1;HPM_P2
2022/05/29 00:00:43;;;;;;;7.50;1.90;;;;;;;;;;4993885;28;20034;-72
2022/05/29 00:03:09;;;;;;;5.47;1.80;;;;;;;;;;4993387;28;20073;-71
2022/05/29 00:05:39;;;;;;;7.97;2.08;;;;;;;;;;4993212;28;20518;-72
2022/05/29 00:08:05;;;;;;;6.00;1.65;;;;;;;;;;4993763;28;20464;-72
2022/05/29 00:10:32;;;;;;;6.05;1.65;;;;;;;;;;4993047;28;20495;-71
2022/05/29 00:12:58;;;;;;;5.18;2.00;;;;;;;;;;4994140;28;20018;-71
2022/05/29 00:15:24;;;;;;;7.22;1.90;;;;;;;;;;4993728;28;20041;-72
2022/05/29 00:17:53;;;;;;;8.93;1.88;;;;;;;;;;4992819;28;20030;-72
2022/05/29 00:20:19;;;;;;;6.78;2.25;;;;;;;;;;4992925;28;20058;-71
2022/05/29 00:22:46;;;;;;;8.52;1.75;;;;;;;;;;4993299;28;20049;-72
2022/05/29 00:25:13;;;;;;;6.85;1.92;;;;;;;;;;4993624;28;20048;-72
2022/05/29 00:27:39;;;;;;;6.45;1.90;;;;;;;;;;4993687;28;20030;-72
2022/05/29 00:30:07;;;;;;;6.57;1.70;;;;;;;;;;4992767;28;20034;-72
2022/05/29 00:32:33;;;;;;;8.18;1.92;;;;;;;;;;4995744;28;20572;-72
2022/05/29 00:34:59;;;;;;;6.65;1.73;;;;;;;;;;4996540;28;20026;-72
2022/05/29 00:37:26;;;;;;;5.38;1.63;;;;;;;;;;4994646;28;20026;-71
2022/05/29 00:39:55;;;;;;;8.52;2.10;;;;;;;;;;4993711;28;20031;-71
2022/05/29 00:42:23;;;;;;;5.38;1.63;;;;;;;;;;4994522;28;20062;-72
2022/05/29 00:44:50;;;;;;;9.88;2.00;;;;;;;;;;4994280;28;20030;-72
2022/05/29 00:47:18;;;;;;;5.68;1.67;;;;;;;;;;4994377;28;20476;-72
2022/05/29 00:49:46;;;;;;;4.75;1.50;;;;;;;;;;4994568;28;20049;-71
2022/05/29 00:52:16;;;;;;;6.95;2.00;;;;;;;;;;4993536;28;20030;-72
2022/05/29 00:54:45;;;;;;;6.28;1.80;;;;;;;;;;4993754;28;20030;-72
2022/05/29 00:57:12;;;;;;;5.53;1.45;;;;;;;;;;4994464;28;20042;-72
2022/05/29 00:59:39;;;;;;;7.43;1.80;;;;;;;;;;4993946;28;20026;-71
2022/05/29 01:02:05;;;;;;;5.40;1.40;;;;;;;;;;4995450;28;20026;-72
2022/05/29 01:04:36;;;;;;;5.53;2.00;;;;;;;;;;4994216;28;20196;-72
2022/05/29 01:07:06;;;;;;;8.25;1.83;;;;;;;;;;4993442;28;20019;-71
2022/05/29 01:09:32;;;;;;;6.05;1.60;;;;;;;;;;4993818;28;20449;-71
2022/05/29 01:12:15;;;;;;;7.72;1.92;;;;;;;;;;4995481;28;20038;-71
2022/05/29 01:14:44;;;;;;;6.95;1.52;;;;;;;;;;4995096;28;20030;-71
2022/05/29 01:17:45;;;;;;;8.27;1.60;;;;;;;;;;4994145;28;20042;-71
2022/05/29 01:20:14;;;;;;;5.07;1.52;;;;;;;;;;4924417;29;20028;-71
2022/05/29 01:22:59;;;;;;;6.47;1.70;;;;;;;;;;4934816;29;20058;-71
2022/05/29 01:25:28;;;;;;;8.15;1.88;;;;;;;;;;4932560;29;20130;-72
2022/05/29 01:28:09;;;;;;;5.95;1.90;;;;;;;;;;4931054;29;20042;-72
2022/05/29 01:30:39;;;;;;;6.68;1.80;;;;;;;;;;4934033;29;20035;-72
2022/05/29 01:33:38;;;;;;;8.25;1.80;;;;;;;;;;4934647;29;20036;-71
2022/05/29 01:36:07;;;;;;;7.45;2.00;;;;;;;;;;4895774;29;20506;-72
2022/05/29 01:38:41;;;;;;;7.60;2.15;;;;;;;;;;4896435;29;20451;-72
2022/05/29 01:41:09;;;;;;;7.38;1.95;;;;;;;;;;4895598;29;20557;-71
2022/05/29 01:43:41;;;;;;;5.00;1.33;;;;;;;;;;4880276;29;20051;-72
2022/05/29 01:46:11;;;;;;;5.07;1.60;;;;;;;;;;4895228;29;20068;-71
2022/05/29 01:48:46;;;;;;;7.05;1.60;;;;;;;;;;4895312;29;20052;-72
2022/05/29 01:51:17;;;;;;;6.50;1.70;;;;;;;;;;4895433;29;20055;-71
2022/05/29 01:53:45;;;;;;;7.88;2.33;;;;;;;;;;4906810;29;20028;-72
2022/05/29 01:56:14;;;;;;;6.38;1.70;;;;;;;;;;4916356;29;20031;-71
2022/05/29 01:58:42;;;;;;;6.10;1.60;;;;;;;;;;4917893;29;20047;-72
2022/05/29 02:01:10;;;;;;;11.18;2.15;;;;;;;;;;4932432;29;20107;-71
2022/05/29 02:03:43;;;;;;;5.32;1.67;;;;;;;;;;4933678;29;20150;-71
2022/05/29 02:06:15;;;;;;;9.37;1.73;;;;;;;;;;4933489;29;20043;-71
2022/05/29 02:09:02;;;;;;;9.00;2.13;;;;;;;;;;4932559;29;20334;-72
2022/05/29 02:11:29;;;;;;;6.05;1.98;;;;;;;;;;4958653;28;20038;-72
2022/05/29 02:14:21;;;;;;;5.53;1.73;;;;;;;;;;4993014;28;20027;-72
2022/05/29 02:16:54;;;;;;;6.88;2.10;;;;;;;;;;4976591;28;20116;-71
2022/05/29 02:19:25;;;;;;;7.40;2.27;;;;;;;;;;4991889;28;20375;-71
2022/05/29 02:22:01;;;;;;;5.05;1.80;;;;;;;;;;4992371;28;20053;-71
2022/05/29 02:24:31;;;;;;;7.45;2.08;;;;;;;;;;4992550;28;20056;-71
2022/05/29 02:27:02;;;;;;;5.97;1.70;;;;;;;;;;4992826;28;20031;-71
2022/05/29 02:29:29;;;;;;;5.30;1.80;;;;;;;;;;5006578;28;20043;-71
2022/05/29 02:32:07;;;;;;;5.20;1.55;;;;;;;;;;4994298;28;20022;-71
2022/05/29 02:34:33;;;;;;;9.40;1.75;;;;;;;;;;4992822;28;20038;-72
2022/05/29 02:37:18;;;;;;;6.53;2.08;;;;;;;;;;4992256;28;20022;-72
2022/05/29 02:39:55;;;;;;;7.80;1.98;;;;;;;;;;4992927;28;20034;-72
2022/05/29 02:42:27;;;;;;;5.63;1.50;;;;;;;;;;4996922;28;20026;-71
2022/05/29 02:45:12;;;;;;;6.75;1.95;;;;;;;;;;4996554;28;20026;-71
2022/05/29 02:47:45;;;;;;;7.45;1.98;;;;;;;;;;4996733;28;20022;-71
2022/05/29 02:50:14;;;;;;;5.73;1.40;;;;;;;;;;5008197;28;20097;-71
2022/05/29 02:52:41;;;;;;;6.07;1.83;;;;;;;;;;4981605;28;20277;-72
2022/05/29 02:55:07;;;;;;;5.22;1.50;;;;;;;;;;4995963;28;20042;-71
2022/05/29 02:57:33;;;;;;;7.57;1.52;;;;;;;;;;5011434;28;20026;-72
2022/05/29 03:00:07;;;;;;;6.00;1.60;;;;;;;;;;4997923;28;20053;-71
2022/05/29 03:02:52;;;;;;;5.65;1.30;;;;;;;;;;4997106;28;20030;-71
2022/05/29 03:05:27;;;;;;;4.90;1.50;;;;;;;;;;4996090;28;20034;-71
2022/05/29 03:08:11;;;;;;;5.85;1.50;;;;;;;;;;5011571;28;20026;-72
2022/05/29 03:10:43;;;;;;;4.78;1.70;;;;;;;;;;4997044;28;20025;-72
2022/05/29 03:13:15;;;;;;;7.22;1.50;;;;;;;;;;4991148;28;20538;-71
2022/05/29 03:15:45;;;;;;;4.95;1.63;;;;;;;;;;4996182;28;20403;-72
2022/05/29 03:18:22;;;;;;;5.93;1.60;;;;;;;;;;4996242;28;20104;-71
2022/05/29 03:20:58;;;;;;;7.78;2.00;;;;;;;;;;4995685;28;20034;-72
2022/05/29 03:23:36;;;;;;;5.93;1.73;;;;;;;;;;4995717;28;20073;-72
2022/05/29 03:26:07;;;;;;;7.38;1.77;;;;;;;;;;4995904;28;20034;-71
2022/05/29 03:28:33;;;;;;;7.28;1.50;;;;;;;;;;4996091;28;20518;-72
2022/05/29 03:31:00;;;;;;;6.82;1.70;;;;;;;;;;4995267;28;20034;-71
2022/05/29 03:33:27;;;;;;;6.72;1.63;;;;;;;;;;4995427;28;20057;-71
2022/05/29 03:35:53;;;;;;;5.95;1.45;;;;;;;;;;4995730;28;20034;-71
2022/05/29 03:38:19;;;;;;;6.43;1.30;;;;;;;;;;4997329;28;20092;-71
2022/05/29 03:40:46;;;;;;;6.20;1.63;;;;;;;;;;4996542;28;20026;-71
2022/05/29 03:43:13;;;;;;;7.88;1.67;;;;;;;;;;4995460;28;20022;-71
2022/05/29 03:45:39;;;;;;;7.57;1.48;;;;;;;;;;4995656;28;20468;-71
2022/05/29 03:48:06;;;;;;;6.68;1.90;;;;;;;;;;4995059;28;20023;-71
2022/05/29 03:50:34;;;;;;;7.25;1.73;;;;;;;;;;4997347;28;20040;-71
2022/05/29 03:53:00;;;;;;;6.82;1.42;;;;;;;;;;4994795;28;20049;-72
2022/05/29 03:55:27;;;;;;;5.97;1.50;;;;;;;;;;4995541;28;20038;-71
2022/05/29 03:57:53;;;;;;;7.80;1.60;;;;;;;;;;4994831;28;20396;-72
2022/05/29 04:00:19;;;;;;;8.10;1.58;;;;;;;;;;4995339;28;20026;-72
2022/05/29 04:02:46;;;;;;;8.07;1.50;;;;;;;;;;4994876;28;20105;-71
2022/05/29 04:05:13;;;;;;;7.30;1.70;;;;;;;;;;4995392;28;20487;-72
2022/05/29 04:13:11;;;;;;;5.35;1.52;;;;;;;;;;4994774;28;20081;-72
2022/05/29 04:15:41;;;;;;;6.50;1.73;;;;;;;;;;4995291;28;20129;-71
2022/05/29 04:18:07;;;;;;;11.50;1.67;;;;;;;;;;4995885;28;20053;-71
2022/05/29 04:20:33;;;;;;;10.48;2.17;;;;;;;;;;4995489;28;20412;-72
2022/05/29 04:23:00;;;;;;;9.80;2.17;;;;;;;;;;4994739;28;20051;-72
2022/05/29 04:25:26;;;;;;;6.47;1.77;;;;;;;;;;4994014;28;20034;-72
2022/05/29 04:27:52;;;;;;;4.60;1.50;;;;;;;;;;4996394;28;20031;-71
2022/05/29 04:30:18;;;;;;;6.05;1.83;;;;;;;;;;4996048;28;20484;-72
2022/05/29 04:32:59;;;;;;;6.10;1.50;;;;;;;;;;4994437;28;20026;-72
2022/05/29 04:35:26;;;;;;;5.50;1.33;;;;;;;;;;4994371;28;20108;-72
2022/05/29 04:37:52;;;;;;;7.05;1.77;;;;;;;;;;4994705;28;20448;-71
2022/05/29 04:40:19;;;;;;;7.85;1.60;;;;;;;;;;4993732;28;20464;-71
2022/05/29 04:42:45;;;;;;;6.07;1.50;;;;;;;;;;4994513;28;20018;-72
2022/05/29 04:45:11;;;;;;;6.00;1.77;;;;;;;;;;4994971;28;20031;-71
2022/05/29 04:47:38;;;;;;;10.32;1.80;;;;;;;;;;4992899;28;20022;-71
2022/05/29 04:50:04;;;;;;;8.77;2.70;;;;;;;;;;5009466;28;20034;-72
2022/05/29 04:52:30;;;;;;;7.55;1.90;;;;;;;;;;4994314;28;20105;-72
2022/05/29 04:54:56;;;;;;;6.65;1.40;;;;;;;;;;4989708;28;20399;-72
2022/05/29 04:57:23;;;;;;;7.72;1.58;;;;;;;;;;4995502;28;20028;-72
2022/05/29 04:59:49;;;;;;;8.70;1.80;;;;;;;;;;4994400;28;20022;-72
2022/05/29 05:02:16;;;;;;;6.03;2.03;;;;;;;;;;4993942;28;20108;-71
2022/05/29 05:04:42;;;;;;;7.22;1.98;;;;;;;;;;4995361;28;20030;-72
2022/05/29 05:07:08;;;;;;;11.48;2.00;;;;;;;;;;4978627;28;20042;-72
2022/05/29 05:09:34;;;;;;;10.95;2.30;;;;;;;;;;4994965;28;20034;-72
2022/05/29 05:12:00;;;;;;;8.48;1.90;;;;;;;;;;4994295;28;20026;-71
2022/05/29 05:14:27;;;;;;;7.65;1.65;;;;;;;;;;5008853;28;20411;-71
2022/05/29 05:16:54;;;;;;;7.63;1.80;;;;;;;;;;4993749;28;20426;-71
2022/05/29 05:19:20;;;;;;;4.78;1.50;;;;;;;;;;4992978;28;20491;-72
2022/05/29 05:21:46;;;;;;;7.72;1.73;;;;;;;;;;4993515;28;20092;-72
2022/05/29 05:24:12;;;;;;;5.38;1.50;;;;;;;;;;4993652;28;20034;-71
2022/05/29 05:26:39;;;;;;;5.50;1.58;;;;;;;;;;4993898;28;20037;-71
2022/05/29 05:29:05;;;;;;;6.43;1.67;;;;;;;;;;4993843;28;20034;-71
2022/05/29 05:31:31;;;;;;;6.65;1.70;;;;;;;;;;4993646;28;24305;-72
2022/05/29 05:33:58;;;;;;;8.52;1.67;;;;;;;;;;4992833;28;20019;-71
2022/05/29 05:36:24;;;;;;;7.57;1.60;;;;;;;;;;4994900;28;20141;-72
2022/05/29 05:38:51;;;;;;;5.85;1.60;;;;;;;;;;4993881;28;20040;-71
2022/05/29 05:41:17;;;;;;;6.35;1.67;;;;;;;;;;4993382;28;20546;-71
2022/05/29 05:43:43;;;;;;;5.22;1.50;;;;;;;;;;4994458;28;20044;-72
2022/05/29 05:46:10;;;;;;;6.22;1.67;;;;;;;;;;4992547;28;20045;-72
2022/05/29 05:48:37;;;;;;;8.52;1.92;;;;;;;;;;4994721;28;20034;-72
2022/05/29 05:51:03;;;;;;;5.75;1.45;;;;;;;;;;4993525;28;20479;-71
2022/05/29 05:53:29;;;;;;;6.43;1.60;;;;;;;;;;4993449;28;20049;-71
2022/05/29 05:55:55;;;;;;;8.85;1.77;;;;;;;;;;4993480;28;20026;-72
2022/05/29 05:58:21;;;;;;;9.35;1.80;;;;;;;;;;4992606;28;20483;-71
2022/05/29 06:00:48;;;;;;;6.50;1.80;;;;;;;;;;4992955;28;20030;-72
2022/05/29 06:03:15;;;;;;;8.73;1.90;;;;;;;;;;4993308;28;20026;-71
2022/05/29 06:05:41;;;;;;;8.50;2.15;;;;;;;;;;4993100;28;20026;-72
2022/05/29 06:08:07;;;;;;;5.25;1.60;;;;;;;;;;4993543;28;20029;-71
2022/05/29 06:10:33;;;;;;;8.88;1.90;;;;;;;;;;4992986;28;20046;-71
2022/05/29 06:13:03;;;;;;;6.03;1.80;;;;;;;;;;4992290;28;20033;-71
2022/05/29 06:15:29;;;;;;;5.28;1.60;;;;;;;;;;4993756;28;20053;-72
2022/05/29 06:17:55;;;;;;;10.48;1.85;;;;;;;;;;4992919;28;20027;-72
2022/05/29 06:20:22;;;;;;;5.93;1.65;;;;;;;;;;4993078;28;20118;-71
2022/05/29 06:22:48;;;;;;;8.23;1.60;;;;;;;;;;4994745;28;20034;-71
2022/05/29 06:25:15;;;;;;;8.02;1.90;;;;;;;;;;4991442;28;20038;-71
2022/05/29 06:27:43;;;;;;;6.60;1.90;;;;;;;;;;4994169;28;20118;-71
2022/05/29 06:30:11;;;;;;;11.85;2.22;;;;;;;;;;4992620;28;20034;-72
2022/05/29 06:32:37;;;;;;;8.10;1.80;;;;;;;;;;4992905;28;20038;-72
2022/05/29 06:35:04;;;;;;;6.32;1.40;;;;;;;;;;4992470;28;20042;-72
2022/05/29 06:37:31;;;;;;;7.05;1.88;;;;;;;;;;4992823;28;20030;-71
2022/05/29 06:39:58;;;;;;;7.90;1.48;;;;;;;;;;4991993;28;20026;-71
2022/05/29 06:42:24;;;;;;;9.95;1.92;;;;;;;;;;4992414;28;20030;-71
2022/05/29 06:44:50;;;;;;;8.77;1.50;;;;;;;;;;4992465;28;20038;-72
2022/05/29 06:47:16;;;;;;;7.80;1.60;;;;;;;;;;5004734;28;20026;-71
2022/05/29 06:49:42;;;;;;;10.02;1.90;;;;;;;;;;4993088;28;20040;-72
2022/05/29 06:52:09;;;;;;;7.97;1.70;;;;;;;;;;4992468;28;20061;-72
2022/05/29 06:54:36;;;;;;;5.32;1.40;;;;;;;;;;4993905;28;20538;-72
2022/05/29 06:57:03;;;;;;;6.25;1.50;;;;;;;;;;4992155;28;20042;-72
2022/05/29 06:59:29;;;;;;;12.45;1.77;;;;;;;;;;4992664;28;20030;-72
2022/05/29 07:07:28;;;;;;;7.38;1.90;;;;;;;;;;4991216;28;20030;-71
2022/05/29 07:09:54;;;;;;;6.65;1.55;;;;;;;;;;4991344;28;20034;-71
2022/05/29 07:12:20;;;;;;;6.97;1.50;;;;;;;;;;4992083;28;20426;-72
2022/05/29 07:14:54;;;;;;;7.13;1.70;;;;;;;;;;4992511;28;20042;-71
2022/05/29 07:17:22;;;;;;;6.43;1.60;;;;;;;;;;4992351;28;20042;-72
2022/05/29 07:19:48;;;;;;;7.50;1.70;;;;;;;;;;4992809;28;20488;-71
2022/05/29 07:22:14;;;;;;;9.23;1.70;;;;;;;;;;4991302;28;20049;-71
2022/05/29 07:24:40;;;;;;;10.63;1.60;;;;;;;;;;4992394;28;20026;-71
2022/05/29 07:27:07;;;;;;;8.43;1.88;;;;;;;;;;4992138;28;20064;-73
2022/05/29 07:29:33;;;;;;;7.93;1.67;;;;;;;;;;4996267;28;20515;-74
2022/05/29 07:32:00;;;;;;;8.18;1.73;;;;;;;;;;4997460;28;20030;-73
2022/05/29 07:34:27;;;;;;;9.85;1.90;;;;;;;;;;4995873;28;20026;-73
2022/05/29 07:36:55;;;;;;;5.65;1.58;;;;;;;;;;4992851;28;20492;-72
2022/05/29 07:39:21;;;;;;;14.02;2.00;;;;;;;;;;4995942;28;20503;-72
2022/05/29 07:44:32;;;;;;;6.47;1.88;;;;;;;;;;4996933;28;20045;-73
2022/05/29 07:46:58;;;;;;;8.45;1.40;;;;;;;;;;4997616;28;20117;-72
2022/05/29 07:49:25;;;;;;;7.13;1.60;;;;;;;;;;4994294;28;20117;-72
2022/05/29 07:51:51;;;;;;;7.45;1.23;;;;;;;;;;4996425;28;20038;-72
2022/05/29 07:54:17;;;;;;;8.63;2.00;;;;;;;;;;4997148;28;20076;-72
2022/05/29 07:56:43;;;;;;;7.38;2.20;;;;;;;;;;4995697;28;20026;-72
2022/05/29 07:59:10;;;;;;;7.03;1.92;;;;;;;;;;4993580;28;20030;-72
2022/05/29 08:01:37;;;;;;;9.30;1.90;;;;;;;;;;4995511;28;20117;-72
2022/05/29 08:04:03;;;;;;;7.68;2.40;;;;;;;;;;4994276;28;20522;-72
2022/05/29 08:06:30;;;;;;;7.72;1.60;;;;;;;;;;4995686;28;20037;-72
2022/05/29 08:08:56;;;;;;;6.15;1.40;;;;;;;;;;4996347;28;20248;-72
2022/05/29 08:11:22;;;;;;;8.93;1.75;;;;;;;;;;5007896;28;20110;-72
2022/05/29 08:13:48;;;;;;;8.18;1.95;;;;;;;;;;4995052;28;20129;-73
2022/05/29 08:16:17;;;;;;;6.88;1.90;;;;;;;;;;4994319;28;20022;-73
2022/05/29 08:18:43;;;;;;;6.85;2.00;;;;;;;;;;4995279;28;20126;-72
2022/05/29 08:21:09;;;;;;;9.75;2.40;;;;;;;;;;4995552;28;20030;-74
2022/05/29 08:23:37;;;;;;;9.10;2.40;;;;;;;;;;4995997;28;20503;-80
2022/05/29 08:31:32;;;;;;;10.70;3.50;;;;;;;;;;4995085;28;20041;-78
2022/05/29 08:33:59;;;;;;;8.43;2.58;;;;;;;;;;4994211;28;20027;-78
2022/05/29 08:36:26;;;;;;;7.95;2.22;;;;;;;;;;4995076;28;20058;-73
2022/05/29 08:38:55;;;;;;;7.80;2.70;;;;;;;;;;4995063;28;20399;-72
2022/05/29 08:41:40;;;;;;;12.00;2.60;;;;;;;;;;4994703;28;20026;-72
2022/05/29 08:44:06;;;;;;;8.02;1.70;;;;;;;;;;4990682;28;20026;-73
2022/05/29 08:46:36;;;;;;;9.43;1.63;;;;;;;;;;5013452;22;20046;-69
2022/05/29 08:49:02;;;;;;;8.00;1.60;;;;;;;;;;4993168;28;20141;-69
2022/05/29 08:51:34;;;;;;;8.23;1.60;;;;;;;;;;4989918;28;20038;-70
2022/05/29 08:54:15;;;;;;;5.93;1.80;;;;;;;;;;4993760;28;20491;-72
2022/05/29 08:56:57;;;;;;;8.30;1.95;;;;;;;;;;4991577;28;20034;-72
2022/05/29 08:59:23;;;;;;;9.45;2.08;;;;;;;;;;4992553;28;20034;-71
2022/05/29 09:01:59;;;;;;;15.52;2.05;;;;;;;;;;4985554;28;20039;-71
2022/05/29 09:04:37;;;;;;;10.57;2.00;;;;;;;;;;4991350;28;20026;-72
2022/05/29 09:07:05;;;;;;;14.43;2.05;;;;;;;;;;4993996;28;20066;-71
2022/05/29 09:09:46;;;;;;;8.93;1.67;;;;;;;;;;4991687;28;20054;-71
2022/05/29 09:12:32;;;;;;;11.48;1.80;;;;;;;;;;4991989;28;20038;-71
2022/05/29 09:14:59;;;;;;;10.90;1.83;;;;;;;;;;4991048;28;20220;-71
2022/05/29 09:17:35;;;;;;;12.48;2.10;;;;;;;;;;4990250;28;20029;-71
2022/05/29 09:20:01;;;;;;;16.48;2.00;;;;;;;;;;4986238;28;20528;-71
2022/05/29 09:22:29;;;;;;;9.35;1.80;;;;;;;;;;5003492;28;20066;-71
2022/05/29 09:25:10;;;;;;;15.73;2.03;;;;;;;;;;4992958;28;20040;-72
2022/05/29 09:27:36;;;;;;;14.43;2.05;;;;;;;;;;4990831;28;20084;-71
2022/05/29 09:30:04;;;;;;;8.27;2.17;;;;;;;;;;4990254;28;20042;-72
2022/05/29 09:32:33;;;;;;;12.35;1.85;;;;;;;;;;4993312;28;20073;-71
2022/05/29 09:35:10;;;;;;;11.88;2.05;;;;;;;;;;4991231;28;20399;-72
2022/05/29 09:37:42;;;;;;;10.68;1.95;;;;;;;;;;4991650;28;20031;-72
2022/05/29 09:40:12;;;;;;;14.52;1.98;;;;;;;;;;4997638;28;20113;-68
2022/05/29 09:42:40;;;;;;;7.13;1.73;;;;;;;;;;4994216;28;20038;-71
2022/05/29 09:45:35;;;;;;;9.55;1.98;;;;;;;;;;4994868;28;20055;-72
2022/05/29 09:50:46;;;;;;;10.10;1.90;;;;;;;;;;4995029;28;20085;-73
2022/05/29 09:53:19;;;;;;;12.80;1.85;;;;;;;;;;4991393;28;20544;-72
2022/05/29 09:56:14;;;;;;;12.90;2.23;;;;;;;;;;4975710;28;20026;-73
2022/05/29 09:58:44;;;;;;;13.10;1.85;;;;;;;;;;4973220;28;20046;-73
2022/05/29 10:01:10;;;;;;;10.82;1.85;;;;;;;;;;4994184;28;20030;-72
2022/05/29 10:04:03;;;;;;;12.68;1.85;;;;;;;;;;4989823;28;20057;-73
2022/05/29 10:06:31;;;;;;;9.70;1.63;;;;;;;;;;4990325;28;20046;-72
2022/05/29 10:09:09;;;;;;;8.27;1.83;;;;;;;;;;4994100;28;20117;-72
2022/05/29 10:11:38;;;;;;;5.72;2.33;;;;;;;;;;4992970;28;20072;-71
2022/05/29 10:14:36;;;;;;;11.38;1.90;;;;;;;;;;4993250;28;20026;-70
2022/05/29 10:17:06;;;;;;;10.88;2.10;;;;;;;;;;4930126;29;20105;-70
2022/05/29 10:19:41;;;;;;;7.72;1.90;;;;;;;;;;4931373;29;20111;-72
2022/05/29 10:22:20;;;;;;;13.30;2.40;;;;;;;;;;4932907;29;20028;-71
2022/05/29 10:24:47;;;;;;;5.55;1.52;;;;;;;;;;4932217;29;20051;-71
2022/05/29 10:27:27;;;;;;;7.38;1.90;;;;;;;;;;4929457;29;20032;-71
2022/05/29 10:29:56;;;;;;;10.73;2.10;;;;;;;;;;4930169;29;20052;-72
2022/05/29 10:32:24;;;;;;;9.05;2.03;;;;;;;;;;4931989;29;20032;-71
2022/05/29 10:34:50;;;;;;;8.35;1.85;;;;;;;;;;4931817;29;20063;-74
2022/05/29 10:37:26;;;;;;;9.25;1.58;;;;;;;;;;4931745;29;20035;-70
2022/05/29 10:40:10;;;;;;;6.43;1.70;;;;;;;;;;4931956;29;20099;-71
2022/05/29 10:42:40;;;;;;;7.20;1.90;;;;;;;;;;4931246;29;20047;-71
2022/05/29 10:45:08;;;;;;;6.80;1.65;;;;;;;;;;4930243;29;20039;-72
2022/05/29 10:47:42;;;;;;;6.38;1.40;;;;;;;;;;4932407;29;20036;-73
2022/05/29 10:50:31;;;;;;;6.57;1.35;;;;;;;;;;4930730;29;20035;-73
2022/05/29 10:53:00;;;;;;;3.80;1.20;;;;;;;;;;4949741;28;20038;-72
2022/05/29 10:55:36;;;;;;;5.57;1.50;;;;;;;;;;4992181;28;20031;-70
2022/05/29 10:58:02;;;;;;;9.27;1.67;;;;;;;;;;4989906;28;20038;-71
2022/05/29 11:00:32;;;;;;;6.25;1.83;;;;;;;;;;4992332;28;20038;-70
2022/05/29 11:03:21;;;;;;;7.97;1.60;;;;;;;;;;4994060;28;20026;-71
2022/05/29 11:06:07;;;;;;;10.60;1.90;;;;;;;;;;4995022;28;20058;-70
2022/05/29 11:08:53;;;;;;;10.07;2.00;;;;;;;;;;4991649;28;20120;-71
2022/05/29 11:11:23;;;;;;;7.50;1.83;;;;;;;;;;4997509;28;20038;-74
2022/05/29 11:14:09;;;;;;;9.00;2.30;;;;;;;;;;4995091;28;20057;-74
2022/05/29 11:16:49;;;;;;;7.28;2.40;;;;;;;;;;4996525;28;20039;-74
2022/05/29 11:19:45;;;;;;;11.60;2.20;;;;;;;;;;4994912;28;20475;-72
2022/05/29 11:22:30;;;;;;;13.85;6.68;;;25.20;44.10;;;;;;4990094;28;20038;-73
2022/05/29 11:25:06;;;;;;;6.00;1.75;;;25.30;44.20;;;;;;4993608;28;20510;-71
2022/05/29 11:27:52;;;;;;;3.83;1.33;;;25.50;44.90;;;;;;4996878;28;20057;-71
2022/05/29 11:30:34;;;;;;;5.28;1.55;;;25.50;44.30;;;;;;4996251;28;20034;-72
2022/05/29 11:33:28;;;;;;;7.47;1.80;;;25.60;43.70;;;;;;4996013;28;20030;-72
2022/05/29 11:36:14;;;;;;;10.80;6.82;;;25.60;43.60;;;;;;4997992;28;20029;-73
2022/05/29 11:38:40;;;;;;;11.20;3.63;;;25.70;43.40;;;;;;4996057;28;20038;-73
2022/05/29 11:41:32;;;;;;;3.60;1.58;;;25.60;42.70;;;;;;4995571;28;20049;-73
2022/05/29 11:44:07;;;;;;;5.03;1.60;;;25.60;43.30;;;;;;4974913;28;20038;-74
2022/05/29 11:52:49;;;;;;;10.80;3.40;;;25.90;43.50;;;;;;4951545;29;20144;-72
2022/05/29 11:55:20;;;;;;;5.55;1.67;;;25.70;43.90;;;;;;4954095;29;20039;-71
2022/05/29 11:57:49;;;;;;;6.93;1.73;;;25.70;43.40;;;;;;4952269;29;20042;-72
2022/05/29 12:00:29;;;;;;;6.85;1.50;;;25.70;44.20;;;;;;4945357;28;20043;-72
2022/05/29 12:03:19;;;;;;;7.03;2.45;;;25.80;43.80;;;;;;4945916;29;20420;-70
2022/05/29 12:06:20;;;;;;;6.28;2.38;;;25.70;44.30;;;;;;4946444;28;20034;-71
2022/05/29 12:09:01;;;;;;;6.80;2.25;;;26.00;44.20;;;;;;4898647;29;20044;-71
2022/05/29 12:11:45;;;;;;;8.50;2.50;;;26.00;44.20;;;;;;4900428;29;20550;-72
2022/05/29 12:14:11;;;;;;;5.70;1.70;;;26.10;44.50;;;;;;4895555;29;20056;-71
2022/05/29 12:16:41;;;;;;;8.63;2.10;;;26.20;43.10;;;;;;4896119;29;22876;-69
2022/05/29 12:19:44;;;;;;;8.07;2.78;;;26.10;43.10;;;;;;4901249;29;20036;-70
2022/05/29 12:22:12;;;;;;;9.52;4.53;;;26.30;43.80;;;;;;4875041;29;20580;-68
2022/05/29 12:24:48;;;;;;;9.68;4.55;;;26.40;43.20;;;;;;4866708;29;20035;-69
2022/05/29 12:27:19;;;;;;;9.32;3.17;;;26.40;43.20;;;;;;4892402;29;20084;-69
2022/05/29 12:29:54;;;;;;;5.10;1.48;;;26.30;43.70;;;;;;4903981;29;20060;-69
2022/05/29 12:32:30;;;;;;;6.25;1.30;;;26.30;43.70;;;;;;4905987;29;20105;-66
2022/05/29 12:34:59;;;;;;;8.48;1.73;;;26.10;44.20;;;;;;4904883;29;20036;-67
2022/05/29 12:37:27;;;;;;;9.80;1.88;;;26.20;43.60;;;;;;4901196;29;20464;-66
2022/05/29 12:40:03;;;;;;;4.32;1.35;;;26.40;44.40;;;;;;4902084;29;20028;-66
2022/05/29 12:43:04;;;;;;;5.68;1.33;;;26.50;43.70;;;;;;4931177;28;20149;-69
2022/05/29 12:45:38;;;;;;;3.42;1.27;;;26.40;43.50;;;;;;4984448;28;20050;-70
2022/05/29 12:48:20;;;;;;;5.95;1.42;;;26.40;44.40;;;;;;4978500;28;20033;-70
2022/05/29 12:51:05;;;;;;;6.53;1.60;;;26.50;44.00;;;;;;4979391;28;20034;-70
2022/05/29 12:53:53;;;;;;;6.63;1.85;;;26.60;44.10;;;;;;4985870;28;20025;-70
2022/05/29 12:56:38;;;;;;;5.00;1.40;;;26.70;43.10;;;;;;4986169;28;20121;-71
2022/05/29 12:59:21;;;;;;;5.25;1.65;;;26.70;42.90;;;;;;4986633;28;20037;-68
2022/05/29 13:02:22;;;;;;;5.70;1.10;;;26.70;43.60;;;;;;4976817;28;20038;-69
2022/05/29 13:05:25;;;;;;;4.32;1.40;;;26.90;43.90;;;;;;4940019;28;20032;-68
2022/05/29 13:08:09;;;;;;;6.07;1.45;;;26.80;43.90;;;;;;4924993;29;20058;-71
2022/05/29 13:10:41;;;;;;;4.32;1.20;;;26.70;44.20;;;;;;4922305;29;20040;-71
2022/05/29 13:13:20;;;;;;;4.45;1.25;;;26.70;44.30;;;;;;4926208;29;20627;-71
2022/05/29 13:15:48;;;;;;;7.57;1.25;;;26.70;44.10;;;;;;4920462;29;20032;-70
2022/05/29 13:21:07;;;;;;;6.32;1.42;;;26.90;43.20;;;;;;4922590;29;20838;-71
2022/05/29 13:23:53;;;;;;;;;;;26.80;43.60;;;;;;4901567;29;20051;-71
2022/05/29 13:26:20;;;;;;;9.23;1.80;;;27.10;43.90;;;;;;4921422;28;19914;-72
2022/05/29 13:28:53;;;;;;;9.77;1.50;;;27.20;43.80;;;;;;4919704;29;20047;-71
2022/05/29 13:31:20;;;;;;;10.05;1.60;;;26.90;43.10;;;;;;4919840;29;20040;-72
2022/05/29 13:33:53;;;;;;;4.40;1.50;;;26.90;44.30;;;;;;4922240;29;20500;-71
2022/05/29 13:36:41;;;;;;;5.10;1.55;;;27.10;43.60;;;;;;4918406;29;20504;-71
2022/05/29 13:39:08;;;;;;;6.70;1.95;;;27.10;44.70;;;;;;4956514;28;20677;-71
2022/05/29 13:42:02;;;;;;;5.82;1.40;;;27.00;45.20;;;;;;4981595;28;20034;-71
2022/05/29 13:44:34;;;;;;;7.10;1.50;;;27.20;43.50;;;;;;4983645;28;20034;-71
2022/05/29 13:47:30;;;;;;;7.70;2.38;;;27.20;43.50;;;;;;4982824;28;20372;-71
2022/05/29 13:50:17;;;;;;;6.88;1.63;;;27.10;44.20;;;;;;4978192;28;20050;-71
2022/05/29 13:52:49;;;;;;;6.10;1.52;;;26.90;45.20;;;;;;4982331;28;20034;-71
2022/05/29 13:55:21;;;;;;;10.02;1.42;;;27.10;44.70;;;;;;4983585;28;20034;-71
2022/05/29 14:04:02;;;;;;;4.93;1.38;;;27.20;44.50;;;;;;4982751;28;20290;-71
2022/05/29 14:06:33;;;;;;;5.27;1.33;;;27.30;44.30;;;;;;4981787;28;20034;-70
2022/05/29 14:09:03;;;;;;;5.40;1.40;;;27.30;44.00;;;;;;4982615;28;20073;-71
2022/05/29 14:11:47;;;;;;;4.90;1.50;;;27.20;43.20;;;;;;4987268;28;20452;-71
2022/05/29 14:14:33;;;;;;;5.25;1.20;;;27.10;43.60;;;;;;4984389;28;20022;-71
2022/05/29 14:17:14;;;;;;;4.28;1.40;;;27.30;43.60;;;;;;4982607;28;20435;-71
2022/05/29 14:20:05;;;;;;;4.38;1.40;;;27.40;43.70;;;;;;5000466;28;20117;-71
2022/05/29 14:22:55;;;;;;;6.65;1.63;;;27.20;43.80;;;;;;4998530;28;20030;-71
2022/05/29 14:25:33;;;;;;;5.43;1.38;;;27.40;43.30;;;;;;4999829;28;20072;-70
2022/05/29 14:28:53;;;;;;;3.58;1.10;;;27.30;43.60;;;;;;4994674;28;20097;-71
2022/05/29 14:31:50;;;;;;;3.15;1.40;;;27.50;43.10;;;;;;4891388;29;20552;-72
2022/05/29 14:34:53;;;;;;;8.68;1.40;;;27.30;43.80;;;;;;4892377;29;20091;-71
2022/05/29 14:37:27;;;;;;;6.37;1.40;;;27.20;43.60;;;;;;4890352;29;20073;-71
2022/05/29 14:40:20;;;;;;;5.45;1.48;;;27.20;43.90;;;;;;4897522;29;20744;-71
2022/05/29 14:42:50;;;;;;;5.75;1.33;;;27.30;44.30;;;;;;4895679;29;20108;-71
2022/05/29 14:45:29;;;;;;;5.57;1.48;;;27.40;43.60;;;;;;4895935;29;20092;-71
2022/05/29 14:48:19;;;;;;;5.93;1.30;;;27.40;43.90;;;;;;4887660;29;20123;-72
2022/05/29 14:50:55;;;;;;;4.55;1.27;;;27.40;43.70;;;;;;4895578;29;20148;-70
2022/05/29 14:53:54;;;;;;;6.28;1.70;;;27.50;43.20;;;;;;4894549;29;20057;-71
2022/05/29 14:56:35;;;;;;;5.20;1.40;;;27.50;43.30;;;;;;4894662;29;20064;-72
2022/05/29 14:59:21;;;;;;;5.75;1.35;;;27.30;44.40;;;;;;4895263;29;20032;-71
2022/05/29 15:01:54;;;;;;;5.47;1.27;;;27.30;44.10;;;;;;4895129;29;20064;-71
2022/05/29 15:04:28;;;;;;;6.20;1.40;;;27.40;43.20;;;;;;4894154;29;20037;-70
2022/05/29 15:12:37;;;;;;;5.57;1.50;;;27.50;42.50;;;;;;4996348;28;20130;-71
2022/05/29 15:15:20;;;;;;;5.13;1.52;;;27.40;42.70;;;;;;4994136;28;20410;-71
2022/05/29 15:17:47;;;;;;;6.38;1.40;;;27.40;43.90;;;;;;4987219;28;20057;-71
2022/05/29 15:26:08;;;;;;;5.68;1.50;;;27.50;43.90;;;;;;4983303;28;23289;-70
2022/05/29 15:28:38;;;;;;;6.78;1.58;;;27.40;44.50;;;;;;4991948;28;20524;-71
2022/05/29 15:31:07;;;;;;;7.82;1.50;;;27.40;44.20;;;;;;4996633;28;20037;-70